sensor_id;sensor_type;location;lat;lon;timestamp;P1;durP1;ratioP1;P2;durP2;ratioP2
20229;SDS011;12195;55.790;37.572;2022-12-18T00:01:56;16.42;;;7.22;;
20229;SDS011;12195;55.790;37.572;2022-12-18T00:04:29;10.20;;;6.47;;
20229;SDS011;12195;55.790;37.572;2022-12-18T00:07:02;10.72;;;4.55;;
20229;SDS011;12195;55.790;37.572;2022-12-18T00:09:34;12.33;;;6.10;;
20229;SDS011;12195;55.790;37.572;2022-12-18T00:12:08;23.83;;;8.70;;
20229;SDS011;12195;55.790;37.572;2022-12-18T00:14:42;23.52;;;8.28;;
20229;SDS011;12195;55.790;37.572;2022-12-18T00:17:15;13.35;;;4.90;;
20229;SDS011;12195;55.790;37.572;2022-12-18T00:19:48;12.45;;;4.62;;
20229;SDS011;12195;55.790;37.572;2022-12-18T00:22:20;14.07;;;7.20;;
20229;SDS011;12195;55.790;37.572;2022-12-18T00:24:52;20.37;;;7.55;;
20229;SDS011;12195;55.790;37.572;2022-12-18T00:27:24;18.80;;;7.20;;
20229;SDS011;12195;55.790;37.572;2022-12-18T00:29:57;16.55;;;8.30;;
20229;SDS011;12195;55.790;37.572;2022-12-18T00:32:32;14.63;;;6.58;;
20229;SDS011;12195;55.790;37.572;2022-12-18T00:35:05;14.38;;;6.78;;
20229;SDS011;12195;55.790;37.572;2022-12-18T00:37:37;8.58;;;3.60;;
20229;SDS011;12195;55.790;37.572;2022-12-18T00:40:10;12.58;;;5.45;;
20229;SDS011;12195;55.790;37.572;2022-12-18T00:42:42;24.90;;;8.25;;
20229;SDS011;12195;55.790;37.572;2022-12-18T00:45:28;11.18;;;4.75;;
20229;SDS011;12195;55.790;37.572;2022-12-18T00:50:33;14.20;;;5.75;;
20229;SDS011;12195;55.790;37.572;2022-12-18T00:53:05;7.35;;;3.72;;
20229;SDS011;12195;55.790;37.572;2022-12-18T00:55:40;10.40;;;4.90;;
20229;SDS011;12195;55.790;37.572;2022-12-18T00:58:13;16.70;;;6.30;;
20229;SDS011;12195;55.790;37.572;2022-12-18T01:03:18;13.03;;;4.62;;
20229;SDS011;12195;55.790;37.572;2022-12-18T01:05:50;12.60;;;5.67;;
20229;SDS011;12195;55.790;37.572;2022-12-18T01:08:22;26.05;;;7.85;;
20229;SDS011;12195;55.790;37.572;2022-12-18T01:10:54;17.65;;;6.78;;
20229;SDS011;12195;55.790;37.572;2022-12-18T01:13:27;9.50;;;4.42;;
20229;SDS011;12195;55.790;37.572;2022-12-18T01:15:59;10.20;;;4.78;;
20229;SDS011;12195;55.790;37.572;2022-12-18T01:18:31;6.85;;;4.45;;
20229;SDS011;12195;55.790;37.572;2022-12-18T01:21:11;12.58;;;4.80;;
20229;SDS011;12195;55.790;37.572;2022-12-18T01:23:45;13.20;;;6.60;;
20229;SDS011;12195;55.790;37.572;2022-12-18T01:26:17;12.33;;;5.45;;
20229;SDS011;12195;55.790;37.572;2022-12-18T01:28:50;8.88;;;4.55;;
20229;SDS011;12195;55.790;37.572;2022-12-18T01:33:56;11.43;;;5.60;;
20229;SDS011;12195;55.790;37.572;2022-12-18T01:36:31;8.48;;;4.47;;
20229;SDS011;12195;55.790;37.572;2022-12-18T01:39:06;11.20;;;5.03;;
20229;SDS011;12195;55.790;37.572;2022-12-18T01:41:41;10.43;;;5.00;;
20229;SDS011;12195;55.790;37.572;2022-12-18T01:50:27;14.58;;;6.47;;
20229;SDS011;12195;55.790;37.572;2022-12-18T01:53:02;10.72;;;4.83;;
20229;SDS011;12195;55.790;37.572;2022-12-18T01:55:51;8.75;;;4.85;;
20229;SDS011;12195;55.790;37.572;2022-12-18T01:58:48;8.00;;;4.35;;
20229;SDS011;12195;55.790;37.572;2022-12-18T02:01:05;6.00;;;3.90;;
20229;SDS011;12195;55.790;37.572;2022-12-18T02:03:40;14.55;;;6.45;;
20229;SDS011;12195;55.790;37.572;2022-12-18T02:06:15;7.05;;;4.25;;
20229;SDS011;12195;55.790;37.572;2022-12-18T02:08:50;18.27;;;6.33;;
20229;SDS011;12195;55.790;37.572;2022-12-18T02:11:44;17.32;;;6.97;;
20229;SDS011;12195;55.790;37.572;2022-12-18T02:17:13;15.65;;;4.95;;
20229;SDS011;12195;55.790;37.572;2022-12-18T02:25:35;11.78;;;4.12;;
20229;SDS011;12195;55.790;37.572;2022-12-18T02:28:14;14.85;;;5.67;;
20229;SDS011;12195;55.790;37.572;2022-12-18T02:30:49;9.55;;;5.28;;
20229;SDS011;12195;55.790;37.572;2022-12-18T02:33:24;11.48;;;4.87;;
20229;SDS011;12195;55.790;37.572;2022-12-18T02:35:58;11.00;;;4.87;;
20229;SDS011;12195;55.790;37.572;2022-12-18T02:38:32;8.65;;;5.17;;
20229;SDS011;12195;55.790;37.572;2022-12-18T02:41:07;17.87;;;6.55;;
20229;SDS011;12195;55.790;37.572;2022-12-18T02:43:42;12.07;;;6.10;;
20229;SDS011;12195;55.790;37.572;2022-12-18T02:46:27;18.40;;;6.87;;
20229;SDS011;12195;55.790;37.572;2022-12-18T02:48:59;8.83;;;4.45;;
20229;SDS011;12195;55.790;37.572;2022-12-18T02:51:50;8.30;;;4.58;;
20229;SDS011;12195;55.790;37.572;2022-12-18T02:57:19;5.50;;;3.20;;
20229;SDS011;12195;55.790;37.572;2022-12-18T03:05:34;7.28;;;4.35;;
20229;SDS011;12195;55.790;37.572;2022-12-18T03:08:10;10.10;;;5.37;;
20229;SDS011;12195;55.790;37.572;2022-12-18T03:10:46;4.72;;;2.77;;
20229;SDS011;12195;55.790;37.572;2022-12-18T03:13:37;9.03;;;3.33;;
20229;SDS011;12195;55.790;37.572;2022-12-18T03:16:10;7.75;;;4.28;;
20229;SDS011;12195;55.790;37.572;2022-12-18T03:18:47;5.85;;;3.85;;
20229;SDS011;12195;55.790;37.572;2022-12-18T03:21:22;4.85;;;3.22;;
20229;SDS011;12195;55.790;37.572;2022-12-18T03:23:56;7.37;;;4.87;;
20229;SDS011;12195;55.790;37.572;2022-12-18T03:26:29;7.70;;;3.80;;
20229;SDS011;12195;55.790;37.572;2022-12-18T03:29:04;6.97;;;3.90;;
20229;SDS011;12195;55.790;37.572;2022-12-18T03:31:39;8.33;;;4.33;;
20229;SDS011;12195;55.790;37.572;2022-12-18T03:34:13;11.10;;;4.00;;
20229;SDS011;12195;55.790;37.572;2022-12-18T03:36:48;10.53;;;5.30;;
20229;SDS011;12195;55.790;37.572;2022-12-18T03:39:20;5.87;;;3.50;;
20229;SDS011;12195;55.790;37.572;2022-12-18T03:41:59;14.38;;;5.83;;
20229;SDS011;12195;55.790;37.572;2022-12-18T03:44:37;9.48;;;4.62;;
20229;SDS011;12195;55.790;37.572;2022-12-18T03:47:23;5.08;;;3.58;;
20229;SDS011;12195;55.790;37.572;2022-12-18T03:52:52;7.78;;;4.33;;
20229;SDS011;12195;55.790;37.572;2022-12-18T03:55:42;10.15;;;4.12;;
20229;SDS011;12195;55.790;37.572;2022-12-18T03:58:17;10.08;;;4.05;;
20229;SDS011;12195;55.790;37.572;2022-12-18T04:00:59;5.58;;;3.35;;
20229;SDS011;12195;55.790;37.572;2022-12-18T04:03:33;5.50;;;2.70;;
20229;SDS011;12195;55.790;37.572;2022-12-18T04:08:39;3.58;;;2.40;;
20229;SDS011;12195;55.790;37.572;2022-12-18T04:11:13;7.12;;;3.85;;
20229;SDS011;12195;55.790;37.572;2022-12-18T04:13:46;9.63;;;5.37;;
20229;SDS011;12195;55.790;37.572;2022-12-18T04:16:20;7.67;;;4.42;;
20229;SDS011;12195;55.790;37.572;2022-12-18T04:18:54;6.90;;;4.33;;
20229;SDS011;12195;55.790;37.572;2022-12-18T04:21:26;7.17;;;2.80;;
20229;SDS011;12195;55.790;37.572;2022-12-18T04:23:58;6.03;;;3.58;;
20229;SDS011;12195;55.790;37.572;2022-12-18T04:26:31;5.85;;;4.05;;
20229;SDS011;12195;55.790;37.572;2022-12-18T04:29:18;6.22;;;4.03;;
20229;SDS011;12195;55.790;37.572;2022-12-18T04:31:50;6.10;;;3.35;;
20229;SDS011;12195;55.790;37.572;2022-12-18T04:34:22;7.80;;;4.95;;
20229;SDS011;12195;55.790;37.572;2022-12-18T04:36:55;6.62;;;4.40;;
20229;SDS011;12195;55.790;37.572;2022-12-18T04:39:28;5.70;;;2.70;;
20229;SDS011;12195;55.790;37.572;2022-12-18T04:42:02;5.40;;;3.52;;
20229;SDS011;12195;55.790;37.572;2022-12-18T04:44:36;4.22;;;2.58;;
20229;SDS011;12195;55.790;37.572;2022-12-18T04:47:08;3.08;;;2.45;;
20229;SDS011;12195;55.790;37.572;2022-12-18T04:49:40;5.83;;;3.85;;
20229;SDS011;12195;55.790;37.572;2022-12-18T04:52:12;5.50;;;2.42;;
20229;SDS011;12195;55.790;37.572;2022-12-18T04:54:44;4.50;;;2.80;;
20229;SDS011;12195;55.790;37.572;2022-12-18T04:57:16;5.80;;;3.90;;
20229;SDS011;12195;55.790;37.572;2022-12-18T04:59:48;8.53;;;3.50;;
20229;SDS011;12195;55.790;37.572;2022-12-18T05:02:21;7.57;;;4.67;;
20229;SDS011;12195;55.790;37.572;2022-12-18T05:04:54;6.42;;;3.98;;
20229;SDS011;12195;55.790;37.572;2022-12-18T05:07:26;8.90;;;4.55;;
20229;SDS011;12195;55.790;37.572;2022-12-18T05:09:58;12.33;;;5.03;;
20229;SDS011;12195;55.790;37.572;2022-12-18T05:12:31;4.08;;;1.98;;
20229;SDS011;12195;55.790;37.572;2022-12-18T05:15:04;4.22;;;2.70;;
20229;SDS011;12195;55.790;37.572;2022-12-18T05:17:38;5.70;;;3.47;;
20229;SDS011;12195;55.790;37.572;2022-12-18T05:20:10;9.00;;;5.15;;
20229;SDS011;12195;55.790;37.572;2022-12-18T05:22:43;8.68;;;4.58;;
20229;SDS011;12195;55.790;37.572;2022-12-18T05:25:15;6.65;;;3.80;;
20229;SDS011;12195;55.790;37.572;2022-12-18T05:27:49;4.95;;;3.95;;
20229;SDS011;12195;55.790;37.572;2022-12-18T05:30:21;11.05;;;4.37;;
20229;SDS011;12195;55.790;37.572;2022-12-18T05:32:53;7.15;;;3.77;;
20229;SDS011;12195;55.790;37.572;2022-12-18T05:35:26;6.85;;;4.42;;
20229;SDS011;12195;55.790;37.572;2022-12-18T05:37:58;6.75;;;3.50;;
20229;SDS011;12195;55.790;37.572;2022-12-18T05:40:31;6.00;;;3.72;;
20229;SDS011;12195;55.790;37.572;2022-12-18T05:43:04;6.65;;;3.67;;
20229;SDS011;12195;55.790;37.572;2022-12-18T05:45:37;5.30;;;3.47;;
20229;SDS011;12195;55.790;37.572;2022-12-18T05:48:10;7.03;;;3.52;;
20229;SDS011;12195;55.790;37.572;2022-12-18T05:50:42;4.47;;;2.87;;
20229;SDS011;12195;55.790;37.572;2022-12-18T05:53:19;8.75;;;3.75;;
20229;SDS011;12195;55.790;37.572;2022-12-18T05:55:51;8.68;;;3.10;;
20229;SDS011;12195;55.790;37.572;2022-12-18T05:58:23;3.90;;;2.17;;
20229;SDS011;12195;55.790;37.572;2022-12-18T06:00:55;4.67;;;3.30;;
20229;SDS011;12195;55.790;37.572;2022-12-18T06:03:28;5.50;;;2.60;;
20229;SDS011;12195;55.790;37.572;2022-12-18T06:06:02;7.95;;;4.25;;
20229;SDS011;12195;55.790;37.572;2022-12-18T06:08:34;9.28;;;3.70;;
20229;SDS011;12195;55.790;37.572;2022-12-18T06:11:08;11.95;;;3.33;;
20229;SDS011;12195;55.790;37.572;2022-12-18T06:13:39;9.83;;;4.40;;
20229;SDS011;12195;55.790;37.572;2022-12-18T06:16:12;6.35;;;3.85;;
20229;SDS011;12195;55.790;37.572;2022-12-18T06:18:44;11.33;;;5.05;;
20229;SDS011;12195;55.790;37.572;2022-12-18T06:21:16;8.45;;;5.05;;
20229;SDS011;12195;55.790;37.572;2022-12-18T06:23:48;9.95;;;5.00;;
20229;SDS011;12195;55.790;37.572;2022-12-18T06:26:20;6.05;;;3.02;;
20229;SDS011;12195;55.790;37.572;2022-12-18T06:28:54;6.08;;;3.35;;
20229;SDS011;12195;55.790;37.572;2022-12-18T06:31:27;8.13;;;4.62;;
20229;SDS011;12195;55.790;37.572;2022-12-18T06:34:02;6.95;;;3.98;;
20229;SDS011;12195;55.790;37.572;2022-12-18T06:36:34;6.03;;;3.00;;
20229;SDS011;12195;55.790;37.572;2022-12-18T06:39:07;5.83;;;2.55;;
20229;SDS011;12195;55.790;37.572;2022-12-18T06:41:39;10.20;;;5.15;;
20229;SDS011;12195;55.790;37.572;2022-12-18T06:44:11;8.88;;;3.27;;
20229;SDS011;12195;55.790;37.572;2022-12-18T06:46:43;4.33;;;3.30;;
20229;SDS011;12195;55.790;37.572;2022-12-18T06:49:16;8.80;;;5.40;;
20229;SDS011;12195;55.790;37.572;2022-12-18T06:51:49;5.65;;;2.67;;
20229;SDS011;12195;55.790;37.572;2022-12-18T06:54:20;3.47;;;2.75;;
20229;SDS011;12195;55.790;37.572;2022-12-18T06:56:56;4.95;;;3.42;;
20229;SDS011;12195;55.790;37.572;2022-12-18T06:59:28;2.60;;;1.95;;
20229;SDS011;12195;55.790;37.572;2022-12-18T07:02:00;4.75;;;3.02;;
20229;SDS011;12195;55.790;37.572;2022-12-18T07:04:33;7.50;;;5.12;;
20229;SDS011;12195;55.790;37.572;2022-12-18T07:07:05;12.95;;;4.70;;
20229;SDS011;12195;55.790;37.572;2022-12-18T07:09:37;2.33;;;2.12;;
20229;SDS011;12195;55.790;37.572;2022-12-18T07:12:09;8.48;;;2.92;;
20229;SDS011;12195;55.790;37.572;2022-12-18T07:14:42;3.50;;;2.15;;
20229;SDS011;12195;55.790;37.572;2022-12-18T07:17:14;8.98;;;4.08;;
20229;SDS011;12195;55.790;37.572;2022-12-18T07:19:47;10.93;;;3.83;;
20229;SDS011;12195;55.790;37.572;2022-12-18T07:22:19;4.90;;;2.83;;
20229;SDS011;12195;55.790;37.572;2022-12-18T07:24:51;22.25;;;5.97;;
20229;SDS011;12195;55.790;37.572;2022-12-18T07:27:23;5.65;;;3.35;;
20229;SDS011;12195;55.790;37.572;2022-12-18T07:29:55;2.67;;;1.52;;
20229;SDS011;12195;55.790;37.572;2022-12-18T07:35:00;7.22;;;3.95;;
20229;SDS011;12195;55.790;37.572;2022-12-18T07:37:32;4.33;;;2.08;;
20229;SDS011;12195;55.790;37.572;2022-12-18T07:40:04;3.83;;;2.40;;
20229;SDS011;12195;55.790;37.572;2022-12-18T07:42:36;5.70;;;3.22;;
20229;SDS011;12195;55.790;37.572;2022-12-18T07:45:08;5.97;;;3.40;;
20229;SDS011;12195;55.790;37.572;2022-12-18T07:47:41;5.40;;;3.12;;
20229;SDS011;12195;55.790;37.572;2022-12-18T07:50:13;10.88;;;5.03;;
20229;SDS011;12195;55.790;37.572;2022-12-18T07:52:45;5.20;;;3.58;;
20229;SDS011;12195;55.790;37.572;2022-12-18T07:55:16;5.58;;;3.52;;
20229;SDS011;12195;55.790;37.572;2022-12-18T07:57:49;7.08;;;3.87;;
20229;SDS011;12195;55.790;37.572;2022-12-18T08:00:22;5.78;;;3.58;;
20229;SDS011;12195;55.790;37.572;2022-12-18T08:02:54;10.82;;;3.55;;
20229;SDS011;12195;55.790;37.572;2022-12-18T08:05:27;6.03;;;2.95;;
20229;SDS011;12195;55.790;37.572;2022-12-18T08:07:59;5.92;;;2.25;;
20229;SDS011;12195;55.790;37.572;2022-12-18T08:10:31;3.72;;;2.67;;
20229;SDS011;12195;55.790;37.572;2022-12-18T08:13:03;3.05;;;1.90;;
20229;SDS011;12195;55.790;37.572;2022-12-18T08:15:35;4.83;;;3.65;;
20229;SDS011;12195;55.790;37.572;2022-12-18T08:18:07;8.60;;;4.58;;
20229;SDS011;12195;55.790;37.572;2022-12-18T08:20:42;11.15;;;4.05;;
20229;SDS011;12195;55.790;37.572;2022-12-18T08:23:14;4.78;;;3.22;;
20229;SDS011;12195;55.790;37.572;2022-12-18T08:25:47;5.65;;;3.70;;
20229;SDS011;12195;55.790;37.572;2022-12-18T08:28:20;5.47;;;3.83;;
20229;SDS011;12195;55.790;37.572;2022-12-18T08:30:52;7.30;;;3.80;;
20229;SDS011;12195;55.790;37.572;2022-12-18T08:33:24;4.80;;;3.35;;
20229;SDS011;12195;55.790;37.572;2022-12-18T08:36:02;15.72;;;3.72;;
20229;SDS011;12195;55.790;37.572;2022-12-18T08:38:33;3.77;;;1.95;;
20229;SDS011;12195;55.790;37.572;2022-12-18T08:41:07;6.28;;;3.05;;
20229;SDS011;12195;55.790;37.572;2022-12-18T08:43:40;6.05;;;3.22;;
20229;SDS011;12195;55.790;37.572;2022-12-18T08:46:36;5.50;;;3.60;;
20229;SDS011;12195;55.790;37.572;2022-12-18T08:49:06;6.65;;;3.87;;
20229;SDS011;12195;55.790;37.572;2022-12-18T08:51:39;6.72;;;3.47;;
20229;SDS011;12195;55.790;37.572;2022-12-18T08:54:11;4.45;;;2.60;;
20229;SDS011;12195;55.790;37.572;2022-12-18T08:56:46;4.03;;;2.25;;
20229;SDS011;12195;55.790;37.572;2022-12-18T08:59:19;4.58;;;2.52;;
20229;SDS011;12195;55.790;37.572;2022-12-18T09:01:54;4.53;;;3.00;;
20229;SDS011;12195;55.790;37.572;2022-12-18T09:04:27;5.85;;;3.12;;
20229;SDS011;12195;55.790;37.572;2022-12-18T09:06:59;8.75;;;3.12;;
20229;SDS011;12195;55.790;37.572;2022-12-18T09:09:31;9.20;;;4.22;;
20229;SDS011;12195;55.790;37.572;2022-12-18T09:12:03;4.85;;;3.10;;
20229;SDS011;12195;55.790;37.572;2022-12-18T09:14:35;8.35;;;3.77;;
20229;SDS011;12195;55.790;37.572;2022-12-18T09:17:07;8.55;;;3.95;;
20229;SDS011;12195;55.790;37.572;2022-12-18T09:19:39;5.28;;;3.37;;
20229;SDS011;12195;55.790;37.572;2022-12-18T09:22:11;6.05;;;3.30;;
20229;SDS011;12195;55.790;37.572;2022-12-18T09:24:43;7.92;;;3.87;;
20229;SDS011;12195;55.790;37.572;2022-12-18T09:27:15;4.62;;;3.37;;
20229;SDS011;12195;55.790;37.572;2022-12-18T09:29:47;4.95;;;2.65;;
20229;SDS011;12195;55.790;37.572;2022-12-18T09:32:20;6.17;;;3.37;;
20229;SDS011;12195;55.790;37.572;2022-12-18T09:34:52;10.35;;;3.45;;
20229;SDS011;12195;55.790;37.572;2022-12-18T09:37:24;8.08;;;3.12;;
20229;SDS011;12195;55.790;37.572;2022-12-18T09:39:56;6.80;;;4.20;;
20229;SDS011;12195;55.790;37.572;2022-12-18T09:42:29;5.08;;;2.98;;
20229;SDS011;12195;55.790;37.572;2022-12-18T09:45:01;5.70;;;2.77;;
20229;SDS011;12195;55.790;37.572;2022-12-18T09:47:35;3.52;;;2.55;;
20229;SDS011;12195;55.790;37.572;2022-12-18T09:50:29;3.77;;;2.27;;
20229;SDS011;12195;55.790;37.572;2022-12-18T09:53:04;2.60;;;1.87;;
20229;SDS011;12195;55.790;37.572;2022-12-18T09:55:41;5.37;;;3.15;;
20229;SDS011;12195;55.790;37.572;2022-12-18T09:58:33;8.00;;;3.55;;
20229;SDS011;12195;55.790;37.572;2022-12-18T10:01:17;5.28;;;3.75;;
20229;SDS011;12195;55.790;37.572;2022-12-18T10:03:52;4.60;;;2.45;;
20229;SDS011;12195;55.790;37.572;2022-12-18T10:12:17;6.33;;;2.95;;
20229;SDS011;12195;55.790;37.572;2022-12-18T10:14:54;7.42;;;3.35;;
20229;SDS011;12195;55.790;37.572;2022-12-18T10:20:40;5.12;;;3.25;;
20229;SDS011;12195;55.790;37.572;2022-12-18T10:23:25;20.35;;;4.55;;
20229;SDS011;12195;55.790;37.572;2022-12-18T10:26:04;9.73;;;3.98;;
20229;SDS011;12195;55.790;37.572;2022-12-18T10:28:37;7.42;;;2.72;;
20229;SDS011;12195;55.790;37.572;2022-12-18T10:31:14;8.58;;;3.83;;
20229;SDS011;12195;55.790;37.572;2022-12-18T10:33:55;9.28;;;3.45;;
20229;SDS011;12195;55.790;37.572;2022-12-18T10:36:27;5.40;;;3.60;;
20229;SDS011;12195;55.790;37.572;2022-12-18T10:39:24;8.93;;;4.08;;
20229;SDS011;12195;55.790;37.572;2022-12-18T10:41:37;2.60;;;1.85;;
20229;SDS011;12195;55.790;37.572;2022-12-18T10:46:49;7.10;;;4.00;;
20229;SDS011;12195;55.790;37.572;2022-12-18T10:49:27;3.90;;;2.22;;
20229;SDS011;12195;55.790;37.572;2022-12-18T10:52:07;2.25;;;1.80;;
20229;SDS011;12195;55.790;37.572;2022-12-18T10:54:45;2.30;;;1.82;;
20229;SDS011;12195;55.790;37.572;2022-12-18T11:00:23;4.05;;;2.30;;
20229;SDS011;12195;55.790;37.572;2022-12-18T11:02:54;9.05;;;3.77;;
20229;SDS011;12195;55.790;37.572;2022-12-18T11:08:03;5.10;;;3.33;;
20229;SDS011;12195;55.790;37.572;2022-12-18T11:10:41;2.73;;;1.80;;
20229;SDS011;12195;55.790;37.572;2022-12-18T11:13:17;3.27;;;1.90;;
20229;SDS011;12195;55.790;37.572;2022-12-18T11:15:51;3.02;;;2.50;;
20229;SDS011;12195;55.790;37.572;2022-12-18T11:18:27;5.30;;;2.70;;
20229;SDS011;12195;55.790;37.572;2022-12-18T11:21:06;5.67;;;2.77;;
20229;SDS011;12195;55.790;37.572;2022-12-18T11:23:47;4.92;;;2.45;;
20229;SDS011;12195;55.790;37.572;2022-12-18T11:26:24;3.65;;;2.27;;
20229;SDS011;12195;55.790;37.572;2022-12-18T11:29:15;5.67;;;2.70;;
20229;SDS011;12195;55.790;37.572;2022-12-18T11:31:42;5.15;;;3.40;;
20229;SDS011;12195;55.790;37.572;2022-12-18T11:37:00;8.18;;;4.30;;
20229;SDS011;12195;55.790;37.572;2022-12-18T11:39:39;3.83;;;2.80;;
20229;SDS011;12195;55.790;37.572;2022-12-18T11:42:27;6.53;;;3.45;;
20229;SDS011;12195;55.790;37.572;2022-12-18T11:50:48;5.42;;;2.80;;
20229;SDS011;12195;55.790;37.572;2022-12-18T11:53:21;7.22;;;3.72;;
20229;SDS011;12195;55.790;37.572;2022-12-18T11:56:00;3.75;;;2.85;;
20229;SDS011;12195;55.790;37.572;2022-12-18T11:58:57;4.20;;;2.40;;
20229;SDS011;12195;55.790;37.572;2022-12-18T12:01:35;5.10;;;3.08;;
20229;SDS011;12195;55.790;37.572;2022-12-18T12:13:20;3.58;;;2.37;;
20229;SDS011;12195;55.790;37.572;2022-12-18T12:16:15;6.28;;;2.62;;
20229;SDS011;12195;55.790;37.572;2022-12-18T12:19:07;3.90;;;2.05;;
20229;SDS011;12195;55.790;37.572;2022-12-18T12:30:25;4.30;;;2.62;;
20229;SDS011;12195;55.790;37.572;2022-12-18T12:35:55;6.62;;;2.55;;
20229;SDS011;12195;55.790;37.572;2022-12-18T12:38:32;3.40;;;1.95;;
20229;SDS011;12195;55.790;37.572;2022-12-18T12:41:09;3.55;;;2.00;;
20229;SDS011;12195;55.790;37.572;2022-12-18T12:44:06;7.85;;;3.45;;
20229;SDS011;12195;55.790;37.572;2022-12-18T12:46:40;8.88;;;3.00;;
20229;SDS011;12195;55.790;37.572;2022-12-18T12:49:15;2.27;;;1.40;;
20229;SDS011;12195;55.790;37.572;2022-12-18T12:51:57;3.62;;;1.80;;
20229;SDS011;12195;55.790;37.572;2022-12-18T12:54:33;5.10;;;3.08;;
20229;SDS011;12195;55.790;37.572;2022-12-18T12:57:20;7.30;;;3.00;;
20229;SDS011;12195;55.790;37.572;2022-12-18T13:00:05;4.08;;;1.77;;
20229;SDS011;12195;55.790;37.572;2022-12-18T13:02:44;2.12;;;1.47;;
20229;SDS011;12195;55.790;37.572;2022-12-18T13:05:40;5.35;;;2.42;;
20229;SDS011;12195;55.790;37.572;2022-12-18T13:08:28;5.40;;;2.95;;
20229;SDS011;12195;55.790;37.572;2022-12-18T13:10:59;9.80;;;4.78;;
20229;SDS011;12195;55.790;37.572;2022-12-18T13:13:50;5.72;;;3.52;;
20229;SDS011;12195;55.790;37.572;2022-12-18T13:16:25;10.38;;;3.35;;
20229;SDS011;12195;55.790;37.572;2022-12-18T13:18:58;5.75;;;2.55;;
20229;SDS011;12195;55.790;37.572;2022-12-18T13:21:32;8.65;;;2.62;;
20229;SDS011;12195;55.790;37.572;2022-12-18T13:24:30;4.85;;;2.92;;
20229;SDS011;12195;55.790;37.572;2022-12-18T13:26:47;11.18;;;4.47;;
20229;SDS011;12195;55.790;37.572;2022-12-18T13:32:19;13.83;;;5.80;;
20229;SDS011;12195;55.790;37.572;2022-12-18T13:37:52;15.85;;;5.50;;
20229;SDS011;12195;55.790;37.572;2022-12-18T13:40:53;16.97;;;7.07;;
20229;SDS011;12195;55.790;37.572;2022-12-18T13:48:36;15.23;;;6.25;;
20229;SDS011;12195;55.790;37.572;2022-12-18T13:51:10;17.50;;;7.03;;
20229;SDS011;12195;55.790;37.572;2022-12-18T13:53:47;8.68;;;4.42;;
20229;SDS011;12195;55.790;37.572;2022-12-18T13:56:24;6.70;;;3.85;;
20229;SDS011;12195;55.790;37.572;2022-12-18T14:01:57;9.00;;;3.17;;
20229;SDS011;12195;55.790;37.572;2022-12-18T14:04:35;10.63;;;4.85;;
20229;SDS011;12195;55.790;37.572;2022-12-18T14:07:10;19.77;;;8.18;;
20229;SDS011;12195;55.790;37.572;2022-12-18T14:09:47;13.62;;;6.75;;
20229;SDS011;12195;55.790;37.572;2022-12-18T14:12:24;11.60;;;5.80;;
20229;SDS011;12195;55.790;37.572;2022-12-18T14:15:24;12.33;;;4.58;;
20229;SDS011;12195;55.790;37.572;2022-12-18T14:17:59;14.53;;;4.72;;
20229;SDS011;12195;55.790;37.572;2022-12-18T14:20:50;11.25;;;5.65;;
20229;SDS011;12195;55.790;37.572;2022-12-18T14:23:25;12.10;;;5.03;;
20229;SDS011;12195;55.790;37.572;2022-12-18T14:29:00;11.10;;;3.52;;
20229;SDS011;12195;55.790;37.572;2022-12-18T14:31:34;8.68;;;4.85;;
20229;SDS011;12195;55.790;37.572;2022-12-18T14:34:08;7.12;;;4.33;;
20229;SDS011;12195;55.790;37.572;2022-12-18T14:36:53;7.97;;;3.92;;
20229;SDS011;12195;55.790;37.572;2022-12-18T14:39:26;11.40;;;3.67;;
20229;SDS011;12195;55.790;37.572;2022-12-18T14:41:59;9.90;;;4.22;;
20229;SDS011;12195;55.790;37.572;2022-12-18T14:44:33;6.92;;;2.27;;
20229;SDS011;12195;55.790;37.572;2022-12-18T14:47:12;3.87;;;2.37;;
20229;SDS011;12195;55.790;37.572;2022-12-18T14:49:42;5.42;;;3.33;;
20229;SDS011;12195;55.790;37.572;2022-12-18T14:52:20;5.33;;;1.87;;
20229;SDS011;12195;55.790;37.572;2022-12-18T14:54:50;5.83;;;3.92;;
20229;SDS011;12195;55.790;37.572;2022-12-18T14:57:24;5.12;;;2.85;;
20229;SDS011;12195;55.790;37.572;2022-12-18T15:00:11;9.90;;;4.50;;
20229;SDS011;12195;55.790;37.572;2022-12-18T15:02:40;4.62;;;3.12;;
20229;SDS011;12195;55.790;37.572;2022-12-18T15:07:52;6.22;;;3.55;;
20229;SDS011;12195;55.790;37.572;2022-12-18T15:10:31;8.18;;;3.27;;
20229;SDS011;12195;55.790;37.572;2022-12-18T15:18:16;4.78;;;2.98;;
20229;SDS011;12195;55.790;37.572;2022-12-18T15:20:53;5.17;;;2.45;;
20229;SDS011;12195;55.790;37.572;2022-12-18T15:23:46;8.40;;;3.80;;
20229;SDS011;12195;55.790;37.572;2022-12-18T15:26:20;4.87;;;2.45;;
20229;SDS011;12195;55.790;37.572;2022-12-18T15:28:56;6.15;;;3.37;;
20229;SDS011;12195;55.790;37.572;2022-12-18T15:31:33;4.65;;;2.72;;
20229;SDS011;12195;55.790;37.572;2022-12-18T15:34:13;7.17;;;3.60;;
20229;SDS011;12195;55.790;37.572;2022-12-18T15:36:47;6.10;;;3.00;;
20229;SDS011;12195;55.790;37.572;2022-12-18T15:39:19;4.90;;;3.00;;
20229;SDS011;12195;55.790;37.572;2022-12-18T15:41:51;4.00;;;2.12;;
20229;SDS011;12195;55.790;37.572;2022-12-18T15:44:40;6.30;;;3.08;;
20229;SDS011;12195;55.790;37.572;2022-12-18T15:47:14;6.62;;;3.30;;
20229;SDS011;12195;55.790;37.572;2022-12-18T15:49:47;3.77;;;1.90;;
20229;SDS011;12195;55.790;37.572;2022-12-18T15:52:19;4.10;;;2.75;;
20229;SDS011;12195;55.790;37.572;2022-12-18T15:54:52;7.35;;;4.25;;
20229;SDS011;12195;55.790;37.572;2022-12-18T15:57:26;5.40;;;2.27;;
20229;SDS011;12195;55.790;37.572;2022-12-18T15:59:58;3.72;;;2.33;;
20229;SDS011;12195;55.790;37.572;2022-12-18T16:05:05;4.12;;;2.65;;
20229;SDS011;12195;55.790;37.572;2022-12-18T16:07:39;4.45;;;2.62;;
20229;SDS011;12195;55.790;37.572;2022-12-18T16:10:11;4.15;;;2.65;;
20229;SDS011;12195;55.790;37.572;2022-12-18T16:12:43;3.12;;;2.33;;
20229;SDS011;12195;55.790;37.572;2022-12-18T16:15:15;4.33;;;1.82;;
20229;SDS011;12195;55.790;37.572;2022-12-18T16:20:21;5.78;;;3.35;;
20229;SDS011;12195;55.790;37.572;2022-12-18T16:22:53;4.90;;;2.60;;
20229;SDS011;12195;55.790;37.572;2022-12-18T16:25:26;1.70;;;1.52;;
20229;SDS011;12195;55.790;37.572;2022-12-18T16:27:59;6.85;;;2.42;;
20229;SDS011;12195;55.790;37.572;2022-12-18T16:30:31;8.50;;;2.92;;
20229;SDS011;12195;55.790;37.572;2022-12-18T16:33:05;4.15;;;2.12;;
20229;SDS011;12195;55.790;37.572;2022-12-18T16:35:37;9.05;;;4.10;;
20229;SDS011;12195;55.790;37.572;2022-12-18T16:38:09;2.92;;;1.80;;
20229;SDS011;12195;55.790;37.572;2022-12-18T16:40:41;7.45;;;3.72;;
20229;SDS011;12195;55.790;37.572;2022-12-18T16:43:15;3.30;;;2.40;;
20229;SDS011;12195;55.790;37.572;2022-12-18T16:45:48;2.05;;;1.60;;
20229;SDS011;12195;55.790;37.572;2022-12-18T16:48:20;4.20;;;2.65;;
20229;SDS011;12195;55.790;37.572;2022-12-18T16:50:59;4.28;;;2.77;;
20229;SDS011;12195;55.790;37.572;2022-12-18T16:53:34;5.87;;;2.98;;
20229;SDS011;12195;55.790;37.572;2022-12-18T16:56:06;8.15;;;3.72;;
20229;SDS011;12195;55.790;37.572;2022-12-18T16:58:39;3.92;;;2.77;;
20229;SDS011;12195;55.790;37.572;2022-12-18T17:01:11;5.12;;;2.05;;
20229;SDS011;12195;55.790;37.572;2022-12-18T17:03:43;10.53;;;3.92;;
20229;SDS011;12195;55.790;37.572;2022-12-18T17:08:53;3.65;;;2.10;;
20229;SDS011;12195;55.790;37.572;2022-12-18T17:11:33;9.53;;;5.17;;
20229;SDS011;12195;55.790;37.572;2022-12-18T17:14:07;7.85;;;3.55;;
20229;SDS011;12195;55.790;37.572;2022-12-18T17:16:41;8.83;;;3.95;;